createdAt,value
2022-10-17T00:00:37.935Z,4.20
2022-10-17T00:03:04.984Z,4.65
2022-10-17T00:05:31.653Z,4.10
2022-10-17T00:07:58.513Z,4.97
2022-10-17T00:10:25.779Z,4.70
2022-10-17T00:12:52.916Z,4.15
2022-10-17T00:15:20.657Z,4.40
2022-10-17T00:17:47.896Z,3.35
2022-10-17T00:20:15.143Z,3.33
2022-10-17T00:22:42.231Z,3.40
2022-10-17T00:25:09.083Z,3.85
2022-10-17T00:27:37.056Z,4.05
2022-10-17T00:30:04.510Z,3.28
2022-10-17T00:32:31.367Z,3.67
2022-10-17T00:34:58.759Z,3.08
2022-10-17T00:37:25.802Z,2.80
2022-10-17T00:39:52.644Z,2.67
2022-10-17T00:42:19.690Z,2.90
2022-10-17T00:44:47.718Z,3.45
2022-10-17T00:47:17.778Z,2.65
2022-10-17T00:49:44.584Z,3.08
2022-10-17T00:52:23.505Z,2.83
2022-10-17T00:54:55.710Z,3.25
2022-10-17T00:57:22.481Z,3.00
2022-10-17T00:59:54.471Z,3.42
2022-10-17T01:02:22.260Z,3.30
2022-10-17T01:04:50.923Z,2.70
2022-10-17T01:07:17.657Z,3.13
2022-10-17T01:09:45.662Z,2.72
2022-10-17T01:12:16.672Z,3.00
2022-10-17T01:14:58.617Z,3.08
2022-10-17T01:17:36.301Z,3.17
2022-10-17T01:20:40.840Z,2.75
2022-10-17T01:23:19.651Z,2.97
2022-10-17T01:26:08.309Z,2.45
2022-10-17T01:28:56.090Z,2.72
2022-10-17T01:31:24.113Z,2.90
2022-10-17T01:34:08.364Z,2.72
2022-10-17T01:36:59.373Z,2.40
2022-10-17T01:39:48.007Z,2.78
2022-10-17T01:42:49.881Z,3.00
2022-10-17T01:45:25.800Z,2.92
2022-10-17T01:47:53.206Z,2.80
2022-10-17T01:50:28.959Z,2.80
2022-10-17T01:52:59.717Z,2.25
2022-10-17T01:55:36.499Z,2.40
2022-10-17T01:58:25.116Z,2.55
2022-10-17T02:00:52.321Z,2.53
2022-10-17T02:03:20.167Z,3.15
2022-10-17T02:05:47.376Z,2.50
2022-10-17T02:08:14.439Z,2.70
2022-10-17T02:11:16.661Z,2.90
2022-10-17T02:13:52.352Z,2.93
2022-10-17T02:16:36.162Z,2.40
2022-10-17T02:19:03.308Z,3.15
2022-10-17T02:21:54.071Z,2.92
2022-10-17T02:24:32.682Z,2.70
2022-10-17T02:27:12.782Z,2.80
2022-10-17T02:29:54.176Z,3.03
2022-10-17T02:32:35.445Z,2.58
2022-10-17T02:35:04.172Z,2.55
2022-10-17T02:37:31.720Z,2.70
2022-10-17T02:40:00.103Z,2.30
2022-10-17T02:42:27.876Z,3.10
2022-10-17T02:45:00.121Z,2.58
2022-10-17T02:47:36.899Z,2.85
2022-10-17T02:50:06.458Z,2.15
2022-10-17T02:52:48.593Z,2.90
2022-10-17T02:55:23.535Z,3.35
2022-10-17T02:57:56.967Z,2.85
2022-10-17T03:00:25.328Z,2.42
2022-10-17T03:02:53.699Z,3.00
2022-10-17T03:05:23.249Z,2.75
2022-10-17T03:07:50.013Z,2.92
2022-10-17T03:10:16.815Z,2.80
2022-10-17T03:12:43.779Z,2.40
2022-10-17T03:15:12.409Z,3.50
2022-10-17T03:17:39.315Z,2.92
2022-10-17T03:20:08.095Z,2.20
2022-10-17T03:22:34.907Z,2.58
2022-10-17T03:25:03.637Z,2.42
2022-10-17T03:27:30.662Z,2.60
2022-10-17T03:29:57.882Z,2.22
2022-10-17T03:32:24.767Z,2.10
2022-10-17T03:34:51.446Z,2.15
2022-10-17T03:37:18.135Z,2.28
2022-10-17T03:39:44.945Z,2.35
2022-10-17T03:42:11.736Z,2.13
2022-10-17T03:44:38.475Z,2.00
2022-10-17T03:47:06.486Z,2.28
2022-10-17T03:49:33.995Z,2.75
2022-10-17T03:52:00.692Z,2.92
2022-10-17T03:54:27.952Z,2.65
2022-10-17T03:56:54.737Z,2.90
2022-10-17T03:59:22.405Z,2.50
2022-10-17T04:01:58.590Z,2.65
2022-10-17T04:04:25.340Z,2.58
2022-10-17T04:06:52.012Z,2.30
2022-10-17T04:09:18.762Z,2.25
2022-10-17T04:12:00.352Z,2.35
2022-10-17T04:14:27.126Z,2.67
2022-10-17T04:16:54.389Z,1.92
2022-10-17T04:19:21.868Z,2.65
2022-10-17T04:21:49.422Z,2.13
2022-10-17T04:24:17.376Z,2.30
2022-10-17T04:26:53.605Z,3.20
2022-10-17T04:29:25.401Z,2.72
2022-10-17T04:31:56.184Z,2.75
2022-10-17T04:34:32.949Z,2.78
2022-10-17T04:36:59.714Z,2.42
2022-10-17T04:39:27.726Z,2.90
2022-10-17T04:41:56.582Z,3.05
2022-10-17T04:44:24.075Z,2.53
2022-10-17T04:46:52.252Z,2.80
2022-10-17T04:49:19.712Z,2.60
2022-10-17T04:51:48.954Z,2.45
2022-10-17T04:54:21.947Z,2.40
2022-10-17T04:59:21.055Z,2.65
2022-10-17T05:01:53.292Z,2.15
2022-10-17T05:04:23.915Z,2.60
2022-10-17T05:06:53.205Z,2.20
2022-10-17T05:09:22.683Z,2.60
2022-10-17T05:11:49.359Z,2.55
2022-10-17T05:14:18.131Z,2.33
2022-10-17T05:16:44.945Z,2.38
2022-10-17T05:19:12.045Z,2.38
2022-10-17T05:21:44.517Z,2.47
2022-10-17T05:24:13.340Z,2.60
2022-10-17T05:26:40.028Z,2.55
2022-10-17T05:29:06.812Z,2.53
2022-10-17T05:31:37.820Z,2.45
2022-10-17T05:34:09.012Z,2.63
2022-10-17T05:36:38.336Z,2.40
2022-10-17T05:39:05.791Z,2.47
2022-10-17T05:41:34.700Z,2.85
2022-10-17T05:44:04.641Z,2.80
2022-10-17T05:46:42.240Z,2.70
2022-10-17T05:49:15.097Z,2.60
2022-10-17T05:51:52.527Z,2.90
2022-10-17T05:54:19.410Z,2.28
2022-10-17T05:56:46.102Z,2.65
2022-10-17T05:59:12.840Z,2.78
2022-10-17T06:01:49.234Z,2.40
2022-10-17T06:04:16.034Z,2.85
2022-10-17T06:06:43.416Z,2.30
2022-10-17T06:09:10.551Z,2.92
2022-10-17T06:11:40.054Z,2.67
2022-10-17T06:14:07.365Z,2.53
2022-10-17T06:16:34.607Z,2.55
2022-10-17T06:19:01.732Z,2.55
2022-10-17T06:21:29.551Z,2.88
2022-10-17T06:24:06.197Z,2.42
2022-10-17T06:26:35.743Z,2.63
2022-10-17T06:29:02.589Z,2.67
2022-10-17T06:31:34.677Z,2.60
2022-10-17T06:34:01.485Z,2.55
2022-10-17T06:36:28.975Z,2.30
2022-10-17T06:38:55.625Z,3.08
2022-10-17T06:41:41.464Z,2.88
2022-10-17T06:44:11.356Z,2.80
2022-10-17T06:46:59.152Z,2.70
2022-10-17T06:49:27.293Z,2.60
2022-10-17T06:52:17.296Z,2.70
2022-10-17T06:54:57.600Z,3.10
2022-10-17T06:57:32.615Z,2.90
2022-10-17T07:00:21.292Z,2.88
2022-10-17T07:02:51.529Z,2.97
2022-10-17T07:05:19.526Z,2.90
2022-10-17T07:07:48.532Z,2.80
2022-10-17T07:10:18.508Z,3.50
2022-10-17T07:12:45.959Z,2.88
2022-10-17T07:15:13.363Z,3.25
2022-10-17T07:17:40.055Z,2.85
2022-10-17T07:20:07.450Z,2.40
2022-10-17T07:22:36.044Z,3.33
2022-10-17T07:25:02.791Z,3.47
2022-10-17T07:27:34.330Z,2.67
2022-10-17T07:30:01.834Z,2.95
2022-10-17T07:32:37.375Z,3.03
2022-10-17T07:35:05.110Z,3.72
2022-10-17T07:37:32.203Z,3.03
2022-10-17T07:39:59.983Z,3.20
2022-10-17T07:42:27.942Z,2.55
2022-10-17T07:44:55.288Z,2.90
2022-10-17T07:47:23.054Z,2.97
2022-10-17T07:49:50.324Z,3.95
2022-10-17T07:52:17.316Z,4.20
2022-10-17T07:54:44.556Z,3.97
2022-10-17T07:57:11.268Z,3.08
2022-10-17T07:59:38.502Z,2.80
2022-10-17T08:02:05.385Z,2.47
2022-10-17T08:04:32.597Z,2.65
2022-10-17T08:07:17.955Z,2.80
2022-10-17T08:09:45.985Z,2.60
2022-10-17T08:12:14.935Z,3.25
2022-10-17T08:14:42.239Z,3.33
2022-10-17T08:17:09.419Z,2.65
2022-10-17T08:19:40.451Z,3.72
2022-10-17T08:22:07.386Z,3.33
2022-10-17T08:24:34.074Z,3.10
2022-10-17T08:27:00.901Z,2.70
2022-10-17T08:29:27.710Z,4.85
2022-10-17T08:31:58.662Z,3.92
2022-10-17T08:34:27.733Z,3.33
2022-10-17T08:36:54.856Z,2.50
2022-10-17T08:39:21.525Z,4.20
2022-10-17T08:41:56.920Z,3.47
2022-10-17T08:44:29.902Z,2.58
2022-10-17T08:46:59.953Z,2.25
2022-10-17T08:49:39.245Z,2.60
2022-10-17T08:52:30.809Z,2.17
2022-10-17T08:54:57.603Z,2.83
2022-10-17T08:57:24.605Z,2.25
2022-10-17T08:59:52.851Z,2.85
2022-10-17T09:02:33.516Z,4.55
2022-10-17T09:05:24.043Z,9.55
2022-10-17T09:08:02.451Z,2.97
2022-10-17T09:10:29.050Z,2.53
2022-10-17T09:13:17.212Z,2.20
2022-10-17T09:15:55.731Z,3.05
2022-10-17T09:18:29.639Z,2.90
2022-10-17T09:21:28.567Z,3.40
2022-10-17T09:24:09.067Z,2.95
2022-10-17T09:26:42.175Z,2.28
2022-10-17T09:29:25.293Z,3.90
2022-10-17T09:32:15.234Z,4.50
2022-10-17T09:34:41.920Z,2.90
2022-10-17T09:37:13.977Z,2.00
2022-10-17T09:39:41.885Z,2.28
2022-10-17T09:42:13.992Z,3.83
2022-10-17T09:45:11.826Z,4.55
2022-10-17T09:47:42.061Z,3.88
2022-10-17T09:50:30.503Z,5.03
2022-10-17T09:53:01.918Z,5.97
2022-10-17T09:55:38.189Z,3.35
2022-10-17T09:58:07.202Z,3.05
2022-10-17T10:00:36.050Z,1.85
2022-10-17T10:03:22.148Z,2.13
2022-10-17T10:06:05.382Z,2.65
2022-10-17T10:08:35.738Z,5.55
2022-10-17T10:11:07.872Z,5.97
2022-10-17T10:13:36.297Z,4.28
2022-10-17T10:16:17.221Z,5.50
2022-10-17T10:18:45.508Z,2.83
2022-10-17T10:21:15.334Z,2.95
2022-10-17T10:23:43.853Z,2.42
2022-10-17T10:26:22.619Z,1.92
2022-10-17T10:29:08.303Z,2.53
2022-10-17T10:31:38.087Z,1.60
2022-10-17T10:34:18.671Z,2.28
2022-10-17T10:37:17.188Z,1.80
2022-10-17T10:40:20.584Z,2.33
2022-10-17T10:42:50.494Z,1.85
2022-10-17T10:45:48.411Z,2.00
2022-10-17T10:48:26.854Z,1.95
2022-10-17T10:51:05.582Z,2.53
2022-10-17T10:53:42.047Z,2.30
2022-10-17T10:56:27.007Z,2.05
2022-10-17T10:59:08.978Z,2.13
2022-10-17T11:02:03.387Z,2.47
2022-10-17T11:04:45.247Z,2.00
2022-10-17T11:07:23.432Z,2.15
2022-10-17T11:10:09.085Z,1.75
2022-10-17T11:12:41.099Z,2.10
2022-10-17T11:15:30.180Z,2.60
2022-10-17T11:18:03.446Z,2.10
2022-10-17T11:20:37.072Z,2.25
2022-10-17T11:23:32.987Z,2.00
2022-10-17T11:26:04.228Z,1.88
2022-10-17T11:28:31.053Z,1.85
2022-10-17T11:31:08.100Z,1.92
2022-10-17T11:33:41.102Z,1.83
2022-10-17T11:36:09.937Z,1.70
2022-10-17T11:38:36.914Z,1.70
2022-10-17T11:41:05.081Z,1.92
2022-10-17T11:43:57.298Z,1.63
2022-10-17T11:46:25.715Z,2.20
2022-10-17T11:49:20.599Z,1.50
2022-10-17T11:52:01.304Z,1.73
2022-10-17T11:55:01.283Z,1.70
2022-10-17T11:57:37.479Z,1.83
2022-10-17T12:00:22.027Z,1.70
2022-10-17T12:03:12.126Z,1.83
2022-10-17T12:05:55.927Z,2.00
2022-10-17T12:08:39.457Z,2.25
2022-10-17T12:11:21.634Z,1.98
2022-10-17T12:13:55.155Z,1.95
2022-10-17T12:16:21.798Z,1.77
2022-10-17T12:18:50.751Z,1.90
2022-10-17T12:21:17.647Z,2.10
2022-10-17T12:23:52.630Z,1.73
2022-10-17T12:26:29.660Z,2.13
2022-10-17T12:28:57.259Z,2.50
2022-10-17T12:31:29.753Z,2.47
2022-10-17T12:34:01.135Z,2.15
2022-10-17T12:36:28.473Z,1.88
2022-10-17T12:39:01.322Z,2.15
2022-10-17T12:41:40.406Z,2.00
2022-10-17T12:44:13.630Z,1.80
2022-10-17T12:46:51.806Z,1.63
2022-10-17T12:49:41.452Z,1.80
2022-10-17T12:52:32.637Z,1.90
2022-10-17T12:55:12.068Z,1.85
2022-10-17T12:57:48.924Z,2.15
2022-10-17T13:00:33.855Z,1.70
2022-10-17T13:03:28.386Z,1.67
2022-10-17T13:05:58.294Z,1.70
2022-10-17T13:08:29.128Z,1.80
2022-10-17T13:10:56.480Z,2.00
2022-10-17T13:13:39.308Z,2.03
2022-10-17T13:16:06.105Z,1.90
2022-10-17T13:18:33.031Z,2.20
2022-10-17T13:20:59.727Z,2.15
2022-10-17T13:23:29.387Z,2.28
2022-10-17T13:26:16.514Z,1.98
2022-10-17T13:28:43.941Z,1.40
2022-10-17T13:31:39.481Z,1.95
2022-10-17T13:34:15.457Z,1.98
2022-10-17T13:36:47.941Z,1.63
2022-10-17T13:39:23.203Z,2.22
2022-10-17T13:41:59.408Z,1.65
2022-10-17T13:44:28.215Z,1.75
2022-10-17T13:46:55.054Z,2.25
2022-10-17T13:49:55.463Z,2.10
2022-10-17T13:52:25.796Z,1.77
2022-10-17T13:54:53.753Z,1.80
2022-10-17T13:57:24.137Z,1.75
2022-10-17T13:59:53.892Z,1.58
2022-10-17T14:02:24.280Z,2.00
2022-10-17T14:05:28.056Z,2.15
2022-10-17T14:08:20.229Z,1.95
2022-10-17T14:10:46.658Z,2.47
2022-10-17T14:13:21.745Z,2.05
2022-10-17T14:15:48.814Z,2.00
2022-10-17T14:18:21.069Z,2.42
2022-10-17T14:23:38.907Z,1.92
2022-10-17T14:26:08.263Z,1.88
2022-10-17T14:28:35.419Z,2.30
2022-10-17T14:31:18.358Z,2.08
2022-10-17T14:33:50.522Z,1.90
2022-10-17T14:36:18.549Z,1.92
2022-10-17T14:38:50.147Z,2.17
2022-10-17T14:44:29.743Z,1.70
2022-10-17T14:47:00.257Z,1.83
2022-10-17T14:49:39.143Z,2.00
2022-10-17T14:52:16.823Z,1.90
2022-10-17T14:54:46.852Z,2.05
2022-10-17T14:57:34.531Z,2.83
2022-10-17T15:00:03.073Z,2.13
2022-10-17T15:02:33.009Z,2.40
2022-10-17T15:05:09.446Z,1.67
2022-10-17T15:07:39.098Z,2.58
2022-10-17T15:10:06.613Z,2.15
2022-10-17T15:12:33.355Z,2.28
2022-10-17T15:15:02.287Z,1.90
2022-10-17T15:17:31.044Z,1.80
2022-10-17T15:19:57.981Z,2.75
2022-10-17T15:22:25.170Z,2.50
2022-10-17T15:24:52.951Z,2.10
2022-10-17T15:27:26.363Z,2.65
2022-10-17T15:29:53.253Z,2.40
2022-10-17T15:32:20.292Z,2.03
2022-10-17T15:34:47.110Z,2.10
2022-10-17T15:37:33.789Z,2.10
2022-10-17T15:40:05.847Z,2.60
2022-10-17T15:42:35.726Z,2.53
2022-10-17T15:45:02.584Z,2.00
2022-10-17T15:47:33.777Z,2.13
2022-10-17T15:50:01.472Z,2.83
2022-10-17T15:52:28.471Z,2.35
2022-10-17T15:54:57.289Z,2.30
2022-10-17T15:57:29.105Z,2.20
2022-10-17T15:59:58.278Z,2.60
2022-10-17T16:02:25.291Z,2.58
2022-10-17T16:04:52.298Z,2.22
2022-10-17T16:07:19.964Z,2.58
2022-10-17T16:09:46.640Z,2.72
2022-10-17T16:12:17.732Z,2.90
2022-10-17T16:14:44.887Z,2.75
2022-10-17T16:17:15.536Z,2.28
2022-10-17T16:19:42.838Z,2.33
2022-10-17T16:22:22.897Z,2.80
2022-10-17T16:24:49.567Z,2.53
2022-10-17T18:37:17.628Z,4.97
2022-10-17T18:39:45.056Z,4.85
2022-10-17T18:42:11.960Z,5.22
2022-10-17T18:44:38.677Z,4.00
2022-10-17T18:47:05.513Z,5.10
2022-10-17T18:49:32.248Z,4.57
2022-10-17T18:51:59.818Z,4.88
2022-10-17T18:54:26.506Z,4.78
2022-10-17T18:56:54.261Z,4.68
2022-10-17T18:59:21.395Z,4.78
2022-10-17T19:01:48.141Z,4.47
2022-10-17T19:04:15.156Z,5.57
2022-10-17T19:06:41.904Z,4.93
2022-10-17T19:09:10.765Z,5.25
2022-10-17T19:11:38.693Z,4.88
2022-10-17T19:14:13.315Z,4.93
2022-10-17T19:16:45.835Z,5.30
2022-10-17T19:19:17.751Z,4.68
2022-10-17T19:21:45.113Z,4.70
2022-10-17T19:24:15.108Z,5.78
2022-10-17T19:26:43.592Z,4.53
2022-10-17T19:29:13.938Z,4.47
2022-10-17T19:31:41.209Z,4.50
2022-10-17T19:34:07.947Z,4.43
2022-10-17T19:36:35.290Z,4.50
2022-10-17T19:39:04.269Z,4.72
2022-10-17T19:41:31.407Z,4.32
2022-10-17T19:43:58.279Z,4.93
2022-10-17T19:46:26.315Z,4.70
2022-10-17T19:48:53.105Z,4.57
2022-10-17T19:51:24.548Z,5.18
2022-10-17T19:53:52.464Z,5.53
2022-10-17T19:56:20.470Z,5.00
2022-10-17T19:58:48.206Z,4.78
2022-10-17T20:01:26.397Z,5.60
2022-10-17T20:03:53.507Z,5.13
2022-10-17T20:06:20.583Z,4.63
2022-10-17T20:08:47.351Z,5.30
2022-10-17T20:11:16.622Z,6.20
2022-10-17T20:13:44.846Z,5.20
2022-10-17T20:16:23.210Z,5.68
2022-10-17T20:18:51.497Z,5.82
2022-10-17T20:21:23.036Z,5.20
2022-10-17T20:23:50.623Z,5.10
2022-10-17T20:26:26.285Z,5.55
2022-10-17T20:29:01.877Z,5.65
2022-10-17T20:31:28.722Z,6.22
2022-10-17T20:33:59.763Z,5.75
2022-10-17T20:36:26.641Z,5.95
2022-10-17T20:38:57.494Z,5.68
2022-10-17T20:41:25.185Z,6.13
2022-10-17T20:43:52.780Z,6.07
2022-10-17T20:46:35.975Z,5.32
2022-10-17T20:49:05.820Z,5.97
2022-10-17T20:51:33.048Z,5.43
2022-10-17T20:53:59.764Z,5.00
2022-10-17T20:56:28.844Z,6.57
2022-10-17T20:59:00.653Z,5.78
2022-10-17T21:01:28.330Z,5.57
2022-10-17T21:03:55.003Z,5.95
2022-10-17T21:06:22.759Z,6.45
2022-10-17T21:08:50.000Z,5.32
2022-10-17T21:11:28.743Z,5.75
2022-10-17T21:14:06.439Z,5.00
2022-10-17T21:16:35.100Z,5.55
2022-10-17T21:19:02.416Z,6.45
2022-10-17T21:21:34.621Z,4.85
2022-10-17T21:24:04.900Z,5.57
2022-10-17T21:26:33.197Z,5.18
2022-10-17T21:29:05.476Z,6.35
2022-10-17T21:31:34.039Z,5.38
2022-10-17T21:34:05.893Z,5.53
2022-10-17T21:36:32.486Z,5.88
2022-10-17T21:38:59.220Z,5.75
2022-10-17T21:41:27.681Z,6.60
2022-10-17T21:43:56.114Z,5.20
2022-10-17T21:46:23.836Z,5.68
2022-10-17T21:48:51.921Z,5.25
2022-10-17T21:51:22.494Z,5.20
2022-10-17T21:53:50.273Z,6.47
2022-10-17T21:56:19.340Z,5.65
2022-10-17T21:58:46.086Z,5.80
2022-10-17T22:01:17.781Z,5.68
2022-10-17T22:03:47.176Z,5.75
2022-10-17T22:06:38.808Z,6.10
2022-10-17T22:09:04.004Z,5.68
2022-10-17T22:11:32.293Z,5.95
2022-10-17T22:14:04.489Z,6.32
2022-10-17T22:16:31.276Z,6.57
2022-10-17T22:19:03.151Z,6.85
2022-10-17T22:21:33.391Z,5.97
2022-10-17T22:24:02.784Z,6.13
2022-10-17T22:26:31.137Z,5.70
2022-10-17T22:28:58.241Z,6.50
2022-10-17T22:31:25.304Z,5.75
2022-10-17T22:33:52.385Z,6.55
2022-10-17T22:36:19.159Z,6.18
2022-10-17T22:38:45.755Z,6.25
2022-10-17T22:41:12.366Z,5.95
2022-10-17T22:43:39.107Z,5.85
2022-10-17T22:46:07.029Z,5.50
2022-10-17T22:48:34.423Z,5.07
2022-10-17T22:51:01.476Z,5.80
2022-10-17T22:53:29.760Z,6.10
2022-10-17T22:56:05.876Z,6.13
2022-10-17T22:58:34.054Z,5.70
2022-10-17T23:01:01.249Z,5.10
2022-10-17T23:03:29.109Z,5.88
2022-10-17T23:05:56.714Z,6.47
2022-10-17T23:08:24.331Z,5.72
2022-10-17T23:10:51.249Z,6.15
2022-10-17T23:13:19.098Z,6.55
2022-10-17T23:15:46.112Z,5.97
2022-10-17T23:18:12.899Z,6.05
2022-10-17T23:20:39.540Z,5.82
2022-10-17T23:23:06.656Z,6.25
2022-10-17T23:25:34.288Z,6.15
2022-10-17T23:28:01.189Z,6.10
2022-10-17T23:30:27.947Z,6.45
2022-10-17T23:32:55.241Z,6.32
2022-10-17T23:35:22.202Z,6.28
2022-10-17T23:37:48.850Z,6.22
2022-10-17T23:40:15.805Z,7.07
2022-10-17T23:42:42.452Z,6.00
2022-10-17T23:45:09.626Z,6.18
2022-10-17T23:47:36.225Z,6.38
2022-10-17T23:50:03.330Z,6.28
2022-10-17T23:52:29.934Z,6.47
2022-10-17T23:54:56.569Z,6.88
2022-10-17T23:57:23.240Z,5.60
2022-10-17T23:59:50.376Z,6.30
